Terminal Aerodrome Forecast
Issued by NWS Wichita, KS

Home | Current Version | Previous Version | Graphics & Text | Print | Product List | Glossary Off
Versions: 1 2 3 4 5 6 7 8 9 10 11 12 13

000
FTUS43 KICT 222300
TAFICT
TAF
KICT 222322Z 2300/2324 15016G23KT P6SM VCSH SCT080
     FM230200 17011KT P6SM SCT100
     FM231500 19018G26KT P6SM SCT100=

USA.gov is the U.S. government's official web portal to all federal, state and local government web resources and services.